createdAt,value
2017-03-29T00:00:12.931Z,0
2017-03-29T00:00:53.500Z,0
2017-03-29T00:01:34.069Z,0
2017-03-29T00:02:14.653Z,0
2017-03-29T00:02:55.255Z,0
2017-03-29T00:03:35.834Z,0
2017-03-29T00:04:16.402Z,0
2017-03-29T00:04:56.984Z,0
2017-03-29T00:05:37.572Z,0
2017-03-29T00:06:18.126Z,0
2017-03-29T00:06:58.691Z,0
2017-03-29T00:07:39.288Z,0
2017-03-29T00:08:19.879Z,0
2017-03-29T00:09:00.445Z,0
2017-03-29T00:09:41.018Z,0
2017-03-29T00:10:21.579Z,0
2017-03-29T00:11:02.167Z,0
2017-03-29T00:11:42.739Z,0
2017-03-29T00:12:23.303Z,0
2017-03-29T00:13:03.874Z,0
2017-03-29T00:13:44.439Z,0
2017-03-29T00:14:25.046Z,0
2017-03-29T00:15:12.584Z,0
2017-03-29T00:15:53.184Z,0
2017-03-29T00:16:33.769Z,0
2017-03-29T00:17:14.343Z,0
2017-03-29T00:17:54.925Z,0
2017-03-29T00:18:35.500Z,0
2017-03-29T00:19:16.101Z,0
2017-03-29T00:19:56.680Z,0
2017-03-29T00:20:37.248Z,0
2017-03-29T00:21:17.818Z,0
2017-03-29T00:21:58.388Z,0
2017-03-29T00:22:38.957Z,0
2017-03-29T00:23:19.531Z,0
2017-03-29T00:24:00.126Z,0
2017-03-29T00:24:40.710Z,0
2017-03-29T00:25:21.284Z,0
2017-03-29T00:26:01.884Z,0
2017-03-29T00:26:42.424Z,0
2017-03-29T00:27:23.017Z,0
2017-03-29T00:28:03.610Z,0
2017-03-29T00:28:44.183Z,0
2017-03-29T00:29:24.771Z,0
2017-03-29T00:30:05.359Z,0
2017-03-29T00:30:45.930Z,0
2017-03-29T00:31:26.539Z,0
2017-03-29T00:32:07.153Z,0
2017-03-29T00:32:47.742Z,0
2017-03-29T00:33:28.334Z,0
2017-03-29T00:34:08.903Z,0
2017-03-29T00:34:49.480Z,0
2017-03-29T00:35:30.049Z,0
2017-03-29T00:36:10.661Z,0
2017-03-29T00:36:51.239Z,0
2017-03-29T00:37:31.825Z,0
2017-03-29T00:38:12.393Z,0
2017-03-29T00:38:52.960Z,0
2017-03-29T00:39:33.542Z,0
2017-03-29T00:40:14.116Z,0
2017-03-29T00:40:54.756Z,0
2017-03-29T00:41:35.353Z,0
2017-03-29T00:42:15.928Z,0
2017-03-29T00:42:56.527Z,0
2017-03-29T00:43:37.114Z,0
2017-03-29T00:44:17.675Z,0
2017-03-29T00:44:58.268Z,0
2017-03-29T00:45:38.846Z,0
2017-03-29T00:46:19.415Z,0
2017-03-29T00:47:00.001Z,0
2017-03-29T00:47:40.582Z,0
2017-03-29T00:48:21.170Z,0
2017-03-29T00:49:01.747Z,0
2017-03-29T00:49:42.340Z,0
2017-03-29T00:50:22.907Z,0
2017-03-29T00:51:03.495Z,0
2017-03-29T00:51:44.069Z,0
2017-03-29T00:52:24.643Z,0
2017-03-29T00:53:05.209Z,0
2017-03-29T00:53:45.808Z,0
2017-03-29T00:54:26.382Z,0
2017-03-29T00:55:07.012Z,0
2017-03-29T00:55:47.601Z,0
2017-03-29T00:56:28.163Z,0
2017-03-29T00:57:08.730Z,0
2017-03-29T00:57:49.311Z,0
2017-03-29T00:58:29.895Z,0
2017-03-29T00:59:10.502Z,0
2017-03-29T00:59:51.090Z,0
2017-03-29T01:00:31.687Z,0
2017-03-29T01:01:12.261Z,0
2017-03-29T01:01:52.832Z,0
2017-03-29T01:02:33.401Z,0
2017-03-29T01:03:13.970Z,0
2017-03-29T01:03:54.542Z,0
2017-03-29T01:04:35.135Z,0
2017-03-29T01:05:15.710Z,0
2017-03-29T01:05:56.274Z,0
2017-03-29T01:06:36.849Z,0
2017-03-29T01:07:17.420Z,0
2017-03-29T01:07:57.990Z,0
2017-03-29T01:08:38.576Z,0
2017-03-29T01:09:19.134Z,0
2017-03-29T01:09:59.720Z,0
2017-03-29T01:10:40.298Z,0
2017-03-29T01:11:20.851Z,0
2017-03-29T01:12:01.443Z,0
2017-03-29T01:12:42.014Z,0
2017-03-29T01:13:22.590Z,0
2017-03-29T01:14:03.175Z,0
2017-03-29T01:14:43.755Z,0
2017-03-29T01:15:24.318Z,0
2017-03-29T01:16:04.902Z,0
2017-03-29T01:16:45.502Z,0
2017-03-29T01:17:26.069Z,0
2017-03-29T01:18:06.694Z,0
2017-03-29T01:18:47.270Z,0
2017-03-29T01:19:27.871Z,0
2017-03-29T01:20:08.440Z,0
2017-03-29T01:20:49.043Z,0
2017-03-29T01:21:29.630Z,0
2017-03-29T01:22:10.227Z,0
2017-03-29T01:22:50.821Z,0
2017-03-29T01:23:31.414Z,0
2017-03-29T01:24:11.999Z,0
2017-03-29T01:24:52.575Z,0
2017-03-29T01:25:33.142Z,0
2017-03-29T01:26:13.793Z,0
2017-03-29T01:26:54.382Z,0
2017-03-29T01:27:34.939Z,0
2017-03-29T01:28:15.503Z,0
2017-03-29T01:28:56.072Z,0
2017-03-29T01:29:36.654Z,0
2017-03-29T01:30:17.220Z,0
2017-03-29T01:30:57.798Z,0
2017-03-29T01:31:38.384Z,0
2017-03-29T01:32:18.943Z,0
2017-03-29T01:32:59.551Z,0
2017-03-29T01:33:40.103Z,0
2017-03-29T01:34:20.674Z,0
2017-03-29T01:35:01.244Z,0
2017-03-29T01:35:41.810Z,0
2017-03-29T01:36:22.381Z,0
2017-03-29T01:37:02.954Z,0
2017-03-29T01:37:43.516Z,0
2017-03-29T01:38:24.092Z,0
2017-03-29T01:39:04.667Z,0
2017-03-29T01:39:45.299Z,0
2017-03-29T01:40:25.870Z,0
2017-03-29T01:41:06.462Z,0
2017-03-29T01:41:47.039Z,0
2017-03-29T01:42:27.599Z,0
2017-03-29T01:43:08.183Z,0
2017-03-29T01:43:48.784Z,0
2017-03-29T01:44:29.375Z,0
2017-03-29T01:45:09.942Z,0
2017-03-29T01:45:50.536Z,0
2017-03-29T01:46:31.111Z,0
2017-03-29T01:47:11.706Z,0
2017-03-29T01:47:52.308Z,0
2017-03-29T01:48:32.879Z,0
2017-03-29T01:49:13.456Z,0
2017-03-29T01:49:54.048Z,0
2017-03-29T01:50:34.626Z,0
2017-03-29T01:51:15.192Z,0
2017-03-29T01:51:55.761Z,0
2017-03-29T01:52:36.366Z,0
2017-03-29T01:53:16.951Z,0
2017-03-29T01:53:57.555Z,0
2017-03-29T01:54:38.140Z,0
2017-03-29T01:55:18.726Z,0
2017-03-29T01:55:59.304Z,0
2017-03-29T01:56:39.888Z,0
2017-03-29T01:57:20.450Z,0
2017-03-29T01:58:01.015Z,0
2017-03-29T01:58:41.589Z,0
2017-03-29T01:59:22.203Z,0
2017-03-29T02:00:02.772Z,0
2017-03-29T02:00:43.346Z,0
2017-03-29T02:01:23.914Z,0
2017-03-29T02:02:04.486Z,0
2017-03-29T02:02:45.060Z,0
2017-03-29T02:03:25.671Z,0
2017-03-29T02:04:06.260Z,0
2017-03-29T02:04:46.835Z,0
2017-03-29T02:05:27.385Z,0
2017-03-29T02:06:07.974Z,0
2017-03-29T02:06:48.539Z,0
2017-03-29T02:07:29.119Z,0
2017-03-29T02:08:09.700Z,0
2017-03-29T02:08:50.265Z,0
2017-03-29T02:09:30.820Z,0
2017-03-29T02:10:11.405Z,0
2017-03-29T02:10:52.003Z,0
2017-03-29T02:11:32.576Z,0
2017-03-29T02:12:13.167Z,0
2017-03-29T02:12:53.752Z,0
2017-03-29T02:13:34.348Z,0
2017-03-29T02:14:14.918Z,0
2017-03-29T02:14:55.498Z,0
2017-03-29T02:15:36.076Z,0
2017-03-29T02:16:16.689Z,0
2017-03-29T02:16:57.293Z,0
2017-03-29T02:17:37.878Z,0
2017-03-29T02:18:18.438Z,0
2017-03-29T02:18:59.029Z,0
2017-03-29T02:19:39.616Z,0
2017-03-29T02:20:20.186Z,0
2017-03-29T02:21:00.752Z,0
2017-03-29T02:21:41.342Z,0
2017-03-29T02:22:21.937Z,0
2017-03-29T02:23:02.526Z,0
2017-03-29T02:23:43.142Z,0
2017-03-29T02:24:23.713Z,0
2017-03-29T02:25:04.286Z,0
2017-03-29T02:25:44.877Z,0
2017-03-29T02:26:25.452Z,0
2017-03-29T02:27:06.037Z,0
2017-03-29T02:27:46.607Z,0
2017-03-29T02:28:27.204Z,0
2017-03-29T02:29:07.800Z,0
2017-03-29T02:29:48.388Z,0
2017-03-29T02:30:28.976Z,0
2017-03-29T02:31:09.569Z,0
2017-03-29T02:31:50.128Z,0
2017-03-29T02:32:30.709Z,0
2017-03-29T02:33:11.291Z,0
2017-03-29T02:33:51.863Z,0
2017-03-29T02:34:32.441Z,0
2017-03-29T02:35:13.017Z,0
2017-03-29T02:35:53.581Z,0
2017-03-29T02:36:34.153Z,0
2017-03-29T02:37:14.720Z,0
2017-03-29T02:37:55.315Z,0
2017-03-29T02:38:35.882Z,0
2017-03-29T02:39:16.473Z,0
2017-03-29T02:39:57.039Z,0
2017-03-29T02:40:37.613Z,0
2017-03-29T02:41:18.203Z,0
2017-03-29T02:41:58.789Z,0
2017-03-29T02:42:39.356Z,0
2017-03-29T02:43:19.923Z,0
2017-03-29T02:44:00.520Z,0
2017-03-29T02:44:41.083Z,0
2017-03-29T02:45:21.657Z,0
2017-03-29T02:46:02.226Z,0
2017-03-29T02:46:42.792Z,0
2017-03-29T02:47:23.391Z,0
2017-03-29T02:48:03.947Z,0
2017-03-29T02:48:44.510Z,0
2017-03-29T02:49:25.084Z,0
2017-03-29T02:50:05.648Z,0
2017-03-29T02:50:46.220Z,0
2017-03-29T02:51:26.815Z,0
2017-03-29T02:52:07.430Z,0
2017-03-29T02:52:48.005Z,0
2017-03-29T02:53:28.670Z,0
2017-03-29T02:54:09.405Z,0
2017-03-29T02:54:49.965Z,0
2017-03-29T02:55:30.559Z,0
2017-03-29T02:56:11.133Z,0
2017-03-29T02:56:51.842Z,0
2017-03-29T02:57:32.418Z,0
2017-03-29T02:58:12.992Z,0
2017-03-29T02:58:53.567Z,0
2017-03-29T02:59:34.158Z,0
2017-03-29T03:00:14.757Z,0
2017-03-29T03:00:55.383Z,0
2017-03-29T03:01:35.952Z,0
2017-03-29T03:02:16.544Z,0
2017-03-29T03:02:57.141Z,0
2017-03-29T03:03:37.737Z,0
2017-03-29T03:04:18.297Z,0
2017-03-29T03:04:58.865Z,0
2017-03-29T03:05:39.440Z,0
2017-03-29T03:06:20.015Z,0
2017-03-29T03:07:00.645Z,0
2017-03-29T03:07:41.241Z,0
2017-03-29T03:08:21.803Z,0
2017-03-29T03:09:02.373Z,0
2017-03-29T03:09:42.975Z,0
2017-03-29T03:10:23.581Z,0
2017-03-29T03:11:04.155Z,0
2017-03-29T03:11:44.729Z,0
2017-03-29T03:12:25.366Z,0
2017-03-29T03:13:05.969Z,0
2017-03-29T03:13:46.543Z,0
2017-03-29T03:14:27.134Z,0
2017-03-29T03:15:07.725Z,0
2017-03-29T03:15:48.323Z,0
2017-03-29T03:16:28.891Z,0
2017-03-29T03:17:09.482Z,0
2017-03-29T03:17:50.051Z,0
2017-03-29T03:18:30.630Z,0
2017-03-29T03:19:11.196Z,0
2017-03-29T03:19:51.790Z,0
2017-03-29T03:20:32.411Z,0
2017-03-29T03:21:12.981Z,0
2017-03-29T03:21:53.543Z,0
2017-03-29T03:22:34.171Z,0
2017-03-29T03:23:14.771Z,0
2017-03-29T03:23:55.353Z,0
2017-03-29T03:24:35.944Z,0
2017-03-29T03:25:16.524Z,0
2017-03-29T03:25:57.087Z,0
2017-03-29T03:26:37.669Z,0
2017-03-29T03:27:18.292Z,0
2017-03-29T03:27:58.871Z,0
2017-03-29T03:28:39.460Z,0
2017-03-29T03:29:20.040Z,0
2017-03-29T03:30:00.607Z,0
2017-03-29T03:30:41.183Z,0
2017-03-29T03:31:21.749Z,0
2017-03-29T03:32:02.333Z,0
2017-03-29T03:32:42.909Z,0
2017-03-29T03:33:23.488Z,0
2017-03-29T03:34:04.072Z,0
2017-03-29T03:34:44.644Z,0
2017-03-29T03:35:25.243Z,0
2017-03-29T03:36:05.851Z,0
2017-03-29T03:36:46.443Z,0
2017-03-29T03:37:27.052Z,0
2017-03-29T03:38:07.635Z,0
2017-03-29T03:38:48.198Z,0
2017-03-29T03:39:28.793Z,0
2017-03-29T03:40:09.396Z,0
2017-03-29T03:40:49.950Z,0
2017-03-29T03:41:30.514Z,0
2017-03-29T03:42:11.080Z,0
2017-03-29T03:42:51.675Z,0
2017-03-29T03:43:32.243Z,0
2017-03-29T03:44:12.844Z,0
2017-03-29T03:44:53.407Z,0
2017-03-29T03:45:33.972Z,0
2017-03-29T03:46:14.632Z,0
2017-03-29T03:46:59.712Z,0
2017-03-29T03:47:40.351Z,0
2017-03-29T03:48:20.909Z,0
2017-03-29T03:49:01.485Z,0
2017-03-29T03:49:42.045Z,0
2017-03-29T03:50:22.633Z,0
2017-03-29T03:51:03.207Z,0
2017-03-29T03:51:43.766Z,0
2017-03-29T03:52:24.339Z,0
2017-03-29T03:53:04.908Z,0
2017-03-29T03:53:45.491Z,0
2017-03-29T03:54:26.097Z,0
2017-03-29T03:55:06.694Z,0
2017-03-29T03:55:47.261Z,0
2017-03-29T03:56:27.842Z,0
2017-03-29T03:57:08.426Z,0
2017-03-29T03:57:48.998Z,0
2017-03-29T03:58:29.563Z,0
2017-03-29T03:59:10.158Z,0
2017-03-29T03:59:50.726Z,0
2017-03-29T04:00:31.347Z,0
2017-03-29T04:01:11.909Z,0
2017-03-29T04:01:52.481Z,0
2017-03-29T04:02:33.061Z,0
2017-03-29T04:03:13.657Z,0
2017-03-29T04:03:54.239Z,0
2017-03-29T04:04:34.838Z,0
2017-03-29T04:05:15.427Z,0
2017-03-29T04:05:55.998Z,0
2017-03-29T04:06:36.558Z,0
2017-03-29T04:07:17.130Z,0
2017-03-29T04:07:57.710Z,0
2017-03-29T04:08:38.269Z,0
2017-03-29T04:09:18.853Z,0
2017-03-29T04:09:59.437Z,0
2017-03-29T04:10:40.043Z,0
2017-03-29T04:11:20.617Z,0
2017-03-29T04:12:01.207Z,0
2017-03-29T04:12:41.791Z,0
2017-03-29T04:13:22.353Z,0
2017-03-29T04:14:02.943Z,0
2017-03-29T04:14:43.550Z,0
2017-03-29T04:15:24.128Z,0
2017-03-29T04:16:04.701Z,0
2017-03-29T04:16:45.304Z,0
2017-03-29T04:17:25.899Z,0
2017-03-29T04:18:06.470Z,0
2017-03-29T04:18:47.058Z,0
2017-03-29T04:19:27.678Z,0
2017-03-29T04:20:08.240Z,0
2017-03-29T04:20:48.804Z,0
2017-03-29T04:21:29.405Z,0
2017-03-29T04:22:09.982Z,4
2017-03-29T04:22:50.559Z,4
2017-03-29T04:23:31.139Z,4
2017-03-29T04:24:11.725Z,0
2017-03-29T04:24:52.328Z,0
2017-03-29T04:25:32.906Z,4
2017-03-29T04:26:13.506Z,4
2017-03-29T04:26:54.069Z,4
2017-03-29T04:27:34.634Z,4
2017-03-29T04:28:15.202Z,4
2017-03-29T04:28:55.785Z,4
2017-03-29T04:29:36.401Z,4
2017-03-29T04:30:16.995Z,4
2017-03-29T04:30:57.610Z,8
2017-03-29T04:31:38.211Z,12
2017-03-29T04:32:18.800Z,12
2017-03-29T04:32:59.376Z,12
2017-03-29T04:33:39.949Z,16
2017-03-29T04:34:20.536Z,16
2017-03-29T04:35:01.119Z,20
2017-03-29T04:35:41.696Z,20
2017-03-29T04:36:22.268Z,24
2017-03-29T04:37:02.834Z,28
2017-03-29T04:37:43.413Z,28
2017-03-29T04:38:23.987Z,36
2017-03-29T04:39:04.548Z,36
2017-03-29T04:39:45.157Z,40
2017-03-29T04:40:25.741Z,44
2017-03-29T04:41:06.323Z,48
2017-03-29T04:41:46.899Z,56
2017-03-29T04:42:27.475Z,60
2017-03-29T04:43:08.062Z,68
2017-03-29T04:43:48.646Z,72
2017-03-29T04:44:29.239Z,80
2017-03-29T04:45:09.821Z,88
2017-03-29T04:45:50.404Z,92
2017-03-29T04:46:30.984Z,100
2017-03-29T04:47:11.574Z,108
2017-03-29T04:47:52.175Z,116
2017-03-29T04:48:32.793Z,124
2017-03-29T04:49:13.353Z,132
2017-03-29T04:49:53.933Z,144
2017-03-29T04:50:34.515Z,152
2017-03-29T04:51:15.130Z,156
2017-03-29T04:51:55.732Z,164
2017-03-29T04:52:36.318Z,164
2017-03-29T04:53:16.890Z,164
2017-03-29T04:53:57.460Z,172
2017-03-29T04:54:38.044Z,176
2017-03-29T04:55:18.609Z,184
2017-03-29T04:55:59.173Z,196
2017-03-29T04:56:39.766Z,208
2017-03-29T04:57:20.338Z,220
2017-03-29T04:58:00.913Z,228
2017-03-29T04:58:41.518Z,240
2017-03-29T04:59:22.094Z,248
2017-03-29T05:00:02.694Z,260
2017-03-29T05:00:43.314Z,280
2017-03-29T05:01:23.895Z,296
2017-03-29T05:02:04.457Z,304
2017-03-29T05:02:45.025Z,320
2017-03-29T05:03:25.626Z,336
2017-03-29T05:04:06.194Z,352
2017-03-29T05:04:46.757Z,376
2017-03-29T05:05:27.359Z,388
2017-03-29T05:06:07.923Z,408
2017-03-29T05:06:48.492Z,416
2017-03-29T05:07:29.104Z,416
2017-03-29T05:08:09.654Z,416
2017-03-29T05:08:50.265Z,408
2017-03-29T05:09:30.859Z,396
2017-03-29T05:10:11.429Z,392
2017-03-29T05:10:52.028Z,364
2017-03-29T05:11:32.609Z,332
2017-03-29T05:12:13.201Z,312
2017-03-29T05:12:53.795Z,308
2017-03-29T05:13:34.414Z,304
2017-03-29T05:14:15.020Z,292
2017-03-29T05:14:55.627Z,272
2017-03-29T05:15:36.259Z,248
2017-03-29T05:16:16.837Z,232
2017-03-29T05:16:57.419Z,220
2017-03-29T05:17:37.999Z,212
2017-03-29T05:18:18.577Z,204
2017-03-29T05:18:59.196Z,212
2017-03-29T05:19:39.849Z,228
2017-03-29T05:20:20.419Z,240
2017-03-29T05:21:00.986Z,268
2017-03-29T05:21:41.614Z,288
2017-03-29T05:22:22.223Z,308
2017-03-29T05:23:02.866Z,316
2017-03-29T05:23:43.487Z,320
2017-03-29T05:24:24.071Z,324
2017-03-29T05:25:04.676Z,328
2017-03-29T05:25:45.300Z,340
2017-03-29T05:26:25.839Z,344
2017-03-29T05:27:06.438Z,344
2017-03-29T05:27:47.028Z,344
2017-03-29T05:28:27.591Z,340
2017-03-29T05:29:08.196Z,344
2017-03-29T05:29:48.760Z,340
2017-03-29T05:30:29.359Z,344
2017-03-29T05:31:09.985Z,348
2017-03-29T05:31:50.564Z,348
2017-03-29T05:32:31.159Z,356
2017-03-29T05:33:11.726Z,364
2017-03-29T05:33:52.310Z,376
2017-03-29T05:34:32.876Z,392
2017-03-29T05:35:13.451Z,400
2017-03-29T05:35:54.042Z,392
2017-03-29T05:36:34.621Z,376
2017-03-29T05:37:15.193Z,364
2017-03-29T05:37:55.755Z,360
2017-03-29T05:38:36.337Z,372
2017-03-29T05:39:16.914Z,368
2017-03-29T05:39:57.524Z,364
2017-03-29T05:40:38.092Z,360
2017-03-29T05:41:22.120Z,352
2017-03-29T05:42:02.712Z,340
2017-03-29T05:42:44.825Z,332
2017-03-29T05:43:25.420Z,340
2017-03-29T05:44:06.042Z,352
2017-03-29T05:44:46.638Z,352
2017-03-29T05:45:27.242Z,368
2017-03-29T05:46:07.823Z,412
2017-03-29T05:46:48.397Z,480
2017-03-29T05:47:28.991Z,540
2017-03-29T05:48:09.557Z,584
2017-03-29T05:48:50.165Z,636
2017-03-29T05:49:30.739Z,676
2017-03-29T05:50:11.347Z,720
2017-03-29T05:50:51.953Z,740
2017-03-29T05:51:32.501Z,744
2017-03-29T05:52:13.065Z,748
2017-03-29T05:52:53.629Z,764
2017-03-29T05:53:34.216Z,764
2017-03-29T05:54:14.811Z,760
2017-03-29T05:54:55.385Z,748
2017-03-29T05:55:35.956Z,732
2017-03-29T05:56:16.514Z,716
2017-03-29T05:56:57.098Z,708
2017-03-29T05:57:37.683Z,728
2017-03-29T05:58:18.279Z,796
2017-03-29T05:58:58.847Z,932
2017-03-29T05:59:39.430Z,1120
2017-03-29T06:00:20.034Z,1352
2017-03-29T06:01:00.604Z,1480
2017-03-29T06:01:41.206Z,1508
2017-03-29T06:02:21.788Z,1456
2017-03-29T06:03:02.376Z,1484
2017-03-29T06:03:42.941Z,1684
2017-03-29T06:04:23.554Z,1948
2017-03-29T06:05:04.214Z,2288
2017-03-29T06:05:44.846Z,2736
2017-03-29T06:06:25.434Z,3232
2017-03-29T06:07:06.018Z,3748
2017-03-29T06:07:46.585Z,4336
2017-03-29T06:08:27.165Z,4860
2017-03-29T06:09:07.748Z,5344
2017-03-29T06:09:48.345Z,5672
2017-03-29T06:10:28.927Z,5596
2017-03-29T06:11:09.684Z,5048
2017-03-29T06:11:50.243Z,4264
2017-03-29T06:12:31.029Z,3580
2017-03-29T06:13:11.612Z,3208
2017-03-29T06:13:52.212Z,3128
2017-03-29T06:14:32.780Z,3112
2017-03-29T06:15:13.553Z,3288
2017-03-29T06:15:54.148Z,3456
2017-03-29T06:16:34.948Z,3608
2017-03-29T06:17:15.513Z,3612
2017-03-29T06:17:56.136Z,3764
2017-03-29T06:18:36.715Z,4068
2017-03-29T06:19:17.297Z,4504
2017-03-29T06:19:57.888Z,5108
2017-03-29T06:20:38.481Z,5956
2017-03-29T06:21:19.319Z,6576
2017-03-29T06:21:59.925Z,7136
2017-03-29T06:22:40.488Z,7484
2017-03-29T06:23:21.096Z,7520
2017-03-29T06:24:01.693Z,7492
2017-03-29T06:24:42.261Z,7516
2017-03-29T06:25:22.858Z,7636
2017-03-29T06:26:03.439Z,7872
2017-03-29T06:26:44.006Z,8128
2017-03-29T06:27:24.797Z,8328
2017-03-29T06:28:05.418Z,8360
2017-03-29T06:28:46.224Z,8168
2017-03-29T06:29:26.838Z,7984
2017-03-29T06:30:07.420Z,7872
2017-03-29T06:30:48.149Z,7700
2017-03-29T06:31:28.739Z,7640
2017-03-29T06:32:09.319Z,7504
2017-03-29T06:32:49.895Z,7628
2017-03-29T06:33:30.509Z,7688
2017-03-29T06:34:11.374Z,7628
2017-03-29T06:34:51.963Z,7600
2017-03-29T06:35:32.525Z,7724
2017-03-29T06:36:13.158Z,7796
2017-03-29T06:36:53.740Z,7936
2017-03-29T06:37:34.335Z,8168
2017-03-29T06:38:14.979Z,8404
2017-03-29T06:38:55.592Z,8744
2017-03-29T06:39:36.233Z,9128
2017-03-29T06:40:16.908Z,9604
2017-03-29T06:40:57.479Z,10052
2017-03-29T06:41:38.034Z,10728
2017-03-29T06:42:18.615Z,11660
2017-03-29T06:42:59.204Z,12384
2017-03-29T06:43:39.790Z,13304
2017-03-29T06:44:20.410Z,15140
2017-03-29T06:45:01.004Z,23296
2017-03-29T06:45:41.586Z,28704
2017-03-29T06:46:22.173Z,32224
2017-03-29T06:47:02.751Z,19232
2017-03-29T06:47:43.347Z,18624
2017-03-29T06:48:23.937Z,16096
2017-03-29T06:49:04.522Z,16480
2017-03-29T06:49:45.145Z,16352
2017-03-29T06:50:25.764Z,17760
2017-03-29T06:51:06.362Z,18528
2017-03-29T06:51:46.992Z,14160
2017-03-29T06:52:27.598Z,13208
2017-03-29T06:53:08.237Z,26752
2017-03-29T06:53:48.875Z,27680
2017-03-29T06:54:29.490Z,16640
2017-03-29T06:55:10.074Z,16096
2017-03-29T06:55:50.686Z,12716
2017-03-29T06:56:31.276Z,13416
2017-03-29T06:57:11.875Z,13944
2017-03-29T06:57:52.458Z,15808
2017-03-29T06:58:33.063Z,32448
2017-03-29T06:59:13.650Z,39616
2017-03-29T06:59:54.222Z,22944
2017-03-29T07:00:34.855Z,31488
2017-03-29T07:01:15.465Z,32608
2017-03-29T07:01:56.065Z,32224
2017-03-29T07:02:36.669Z,34976
2017-03-29T07:03:17.260Z,23712
2017-03-29T07:03:57.904Z,44192
2017-03-29T07:04:38.493Z,26112
2017-03-29T07:05:19.100Z,18688
2017-03-29T07:05:59.703Z,14520
2017-03-29T07:06:40.276Z,13064
2017-03-29T07:07:20.909Z,12856
2017-03-29T07:08:01.493Z,13368
2017-03-29T07:08:42.070Z,12592
2017-03-29T07:09:22.677Z,12216
2017-03-29T07:10:03.262Z,12144
2017-03-29T07:10:43.853Z,17440
2017-03-29T07:11:24.546Z,11904
2017-03-29T07:12:05.130Z,10996
2017-03-29T07:12:45.749Z,9928
2017-03-29T07:13:26.292Z,9240
2017-03-29T07:14:06.906Z,8808
2017-03-29T07:14:47.498Z,8112
2017-03-29T07:15:28.070Z,7968
2017-03-29T07:16:08.660Z,8488
2017-03-29T07:16:49.224Z,12160
2017-03-29T07:17:29.845Z,7460
2017-03-29T07:18:10.436Z,7176
2017-03-29T07:18:51.041Z,6980
2017-03-29T07:19:31.624Z,6876
2017-03-29T07:20:12.214Z,7196
2017-03-29T07:20:52.797Z,7244
2017-03-29T07:21:33.542Z,6488
2017-03-29T07:22:13.982Z,6376
2017-03-29T07:22:54.553Z,6668
2017-03-29T07:23:35.146Z,6896
2017-03-29T07:24:15.745Z,7036
2017-03-29T07:24:56.355Z,7496
2017-03-29T07:25:37.017Z,8392
2017-03-29T07:26:17.680Z,9036
2017-03-29T07:26:58.244Z,8648
2017-03-29T07:27:38.832Z,9112
2017-03-29T07:28:19.463Z,9028
2017-03-29T07:29:00.007Z,9152
2017-03-29T07:29:40.589Z,9360
2017-03-29T07:30:21.163Z,9768
2017-03-29T07:31:01.760Z,9956
2017-03-29T07:31:42.344Z,10088
2017-03-29T07:32:22.931Z,10252
2017-03-29T07:33:03.510Z,9676
2017-03-29T07:33:44.116Z,10356
2017-03-29T07:34:24.700Z,12788
2017-03-29T07:35:05.276Z,15236
2017-03-29T07:35:45.858Z,15496
2017-03-29T07:36:26.452Z,20800
2017-03-29T07:37:07.031Z,19456
2017-03-29T07:37:47.619Z,16192
2017-03-29T07:38:28.221Z,12540
2017-03-29T07:39:08.806Z,11080
2017-03-29T07:39:49.387Z,9988
2017-03-29T07:40:29.950Z,9764
2017-03-29T07:41:10.548Z,10044
2017-03-29T07:41:51.127Z,11452
2017-03-29T07:42:31.706Z,20928
2017-03-29T07:43:12.272Z,12616
2017-03-29T07:43:52.865Z,11308
2017-03-29T07:44:33.438Z,11952
2017-03-29T07:45:14.011Z,13472
2017-03-29T07:45:54.619Z,12552
2017-03-29T07:46:35.194Z,10736
2017-03-29T07:47:15.812Z,10040
2017-03-29T07:47:56.376Z,11824
2017-03-29T07:48:36.957Z,10156
2017-03-29T07:49:17.556Z,8732
2017-03-29T07:49:58.137Z,9196
2017-03-29T07:50:38.787Z,9088
2017-03-29T07:51:19.357Z,8664
2017-03-29T07:51:59.945Z,7912
2017-03-29T07:52:40.541Z,6744
2017-03-29T07:53:21.118Z,6204
2017-03-29T07:54:01.704Z,5828
2017-03-29T07:54:42.307Z,5636
2017-03-29T07:55:22.920Z,5548
2017-03-29T07:56:03.530Z,5368
2017-03-29T07:56:44.111Z,5144
2017-03-29T07:57:24.734Z,4836
2017-03-29T07:58:05.307Z,4652
2017-03-29T07:58:45.880Z,4528
2017-03-29T07:59:26.456Z,4680
2017-03-29T08:00:07.032Z,4412
2017-03-29T08:00:47.632Z,4456
2017-03-29T08:01:28.203Z,4692
2017-03-29T08:02:08.793Z,4900
2017-03-29T08:02:49.437Z,5076
2017-03-29T08:03:30.138Z,5452
2017-03-29T08:04:10.647Z,5304
2017-03-29T08:04:51.225Z,5172
2017-03-29T08:05:31.801Z,5108
2017-03-29T08:06:12.356Z,5068
2017-03-29T08:06:52.950Z,4920
2017-03-29T08:07:33.523Z,4764
2017-03-29T08:08:14.091Z,4732
2017-03-29T08:08:54.722Z,4648
2017-03-29T08:09:35.327Z,4624
2017-03-29T08:10:15.886Z,4520
2017-03-29T08:10:56.526Z,4424
2017-03-29T08:11:37.112Z,4308
2017-03-29T08:12:17.727Z,4200
2017-03-29T08:12:58.334Z,4108
2017-03-29T08:13:38.925Z,4044
2017-03-29T08:14:19.491Z,3956
2017-03-29T08:15:00.067Z,3856
2017-03-29T08:15:40.673Z,3892
2017-03-29T08:16:21.248Z,3944
2017-03-29T08:17:01.817Z,3928
2017-03-29T08:17:42.417Z,3896
2017-03-29T08:18:22.998Z,3780
2017-03-29T08:19:03.582Z,3672
2017-03-29T08:19:44.181Z,3612
2017-03-29T08:20:24.759Z,3588
2017-03-29T08:21:05.331Z,3568
2017-03-29T08:21:45.906Z,3612
2017-03-29T08:22:26.480Z,3648
2017-03-29T08:23:07.096Z,3688
2017-03-29T08:23:47.670Z,3780
2017-03-29T08:24:28.266Z,3824
2017-03-29T08:25:08.832Z,3748
2017-03-29T08:25:49.430Z,3676
2017-03-29T08:26:30.048Z,3596
2017-03-29T08:27:10.618Z,3456
2017-03-29T08:27:51.212Z,3344
2017-03-29T08:28:31.781Z,3276
2017-03-29T08:29:12.356Z,3176
2017-03-29T08:29:52.924Z,3052
2017-03-29T08:30:33.528Z,2952
2017-03-29T08:31:14.121Z,2912
2017-03-29T08:31:54.696Z,2912
2017-03-29T08:32:35.273Z,2944
2017-03-29T08:33:15.862Z,3012
2017-03-29T08:33:56.431Z,3100
2017-03-29T08:34:37.011Z,3212
2017-03-29T08:35:17.594Z,3356
2017-03-29T08:35:58.215Z,3460
2017-03-29T08:36:38.786Z,3576
2017-03-29T08:37:19.395Z,3716
2017-03-29T08:38:00.442Z,3816
2017-03-29T08:38:41.017Z,3820
2017-03-29T08:39:21.614Z,3768
2017-03-29T08:40:02.365Z,3724
2017-03-29T08:40:42.982Z,3688
2017-03-29T08:41:23.564Z,3608
2017-03-29T08:42:04.132Z,3568
2017-03-29T08:42:44.723Z,3540
2017-03-29T08:43:25.288Z,3524
2017-03-29T08:44:05.868Z,3528
2017-03-29T08:44:46.475Z,3612
2017-03-29T08:45:27.058Z,3796
2017-03-29T08:46:07.646Z,4064
2017-03-29T08:46:48.228Z,4340
2017-03-29T08:47:28.800Z,4540
2017-03-29T08:48:09.411Z,4720
2017-03-29T08:48:49.991Z,4928
2017-03-29T08:49:30.579Z,5140
2017-03-29T08:50:11.160Z,5328
2017-03-29T08:50:51.737Z,5436
2017-03-29T08:51:32.336Z,5360
2017-03-29T08:52:12.898Z,5216
2017-03-29T08:52:53.491Z,5132
2017-03-29T08:53:34.081Z,5200
2017-03-29T08:54:14.651Z,5424
2017-03-29T08:54:55.257Z,5724
2017-03-29T08:55:36.354Z,6048
2017-03-29T08:56:16.973Z,6276
2017-03-29T08:56:57.559Z,6328
2017-03-29T08:57:38.154Z,6336
2017-03-29T08:58:18.731Z,6280
2017-03-29T08:58:59.369Z,6192
2017-03-29T08:59:39.997Z,6072
2017-03-29T09:00:20.581Z,6052
2017-03-29T09:01:01.158Z,6020
2017-03-29T09:01:41.733Z,6000
2017-03-29T09:02:22.323Z,6040
2017-03-29T09:03:02.901Z,6108
2017-03-29T09:03:43.492Z,6140
2017-03-29T09:04:24.078Z,6132
2017-03-29T09:05:04.679Z,6044
2017-03-29T09:05:45.272Z,5980
2017-03-29T09:06:25.885Z,6096
2017-03-29T09:07:06.489Z,6196
2017-03-29T09:07:47.075Z,6508
2017-03-29T09:08:27.713Z,6752
2017-03-29T09:09:08.290Z,6976
2017-03-29T09:09:48.883Z,7144
2017-03-29T09:10:29.494Z,7308
2017-03-29T09:11:10.096Z,7772
2017-03-29T09:11:50.689Z,8356
2017-03-29T09:12:31.288Z,8712
2017-03-29T09:13:11.891Z,8572
2017-03-29T09:13:52.469Z,8492
2017-03-29T09:14:33.064Z,8416
2017-03-29T09:15:13.653Z,8312
2017-03-29T09:15:54.256Z,8364
2017-03-29T09:16:34.844Z,8800
2017-03-29T09:17:15.415Z,9192
2017-03-29T09:17:56.013Z,9668
2017-03-29T09:18:36.601Z,9780
2017-03-29T09:19:17.176Z,9868
2017-03-29T09:19:57.756Z,9996
2017-03-29T09:20:38.352Z,10128
2017-03-29T09:21:18.956Z,10500
2017-03-29T09:21:59.702Z,10488
2017-03-29T09:22:40.906Z,10440
2017-03-29T09:23:21.806Z,10140
2017-03-29T09:24:02.828Z,10036
2017-03-29T09:24:43.899Z,10148
2017-03-29T09:25:24.765Z,10068
2017-03-29T09:26:05.358Z,9804
2017-03-29T09:26:45.945Z,9496
2017-03-29T09:27:26.510Z,9372
2017-03-29T09:28:07.134Z,9184
2017-03-29T09:28:47.675Z,9016
2017-03-29T09:29:28.282Z,8920